Time;durP1;ratioP1;P1;durP2;ratioP2;P2;SDS_P1;SDS_P2;PMS_P1;PMS_P2;Temp;Humidity;BMP_temperature;BMP_pressure;BME280_temperature;BME280_humidity;BME280_pressure;Samples;Min_cycle;Max_cycle;Signal;HPM_P1;HPM_P2
2022/06/02 00:02:11;;;;;;;;;;;;;;;15.76;76.31;100187.13;5000875;28;20352;-69
2022/06/02 00:04:43;;;;;;;;;;;;;;;15.74;76.07;100191.00;5005036;28;19960;-70
2022/06/02 00:07:11;;;;;;;;;;;;;;;15.71;76.07;100185.31;5020821;28;19929;-70
2022/06/02 00:09:47;;;;;;;;;;;;;;;15.68;76.31;100189.47;5004649;28;20451;-70
2022/06/02 00:12:18;;;;;;;;;;;;;;;15.66;76.24;100191.72;5007160;28;19932;-70
2022/06/02 00:14:50;;;;;;;;;;;;;;;15.64;76.34;100195.88;5003466;28;19935;-71
2022/06/02 00:17:22;;;;;;;;;;;;;;;15.63;76.47;100188.72;5004519;28;20416;-69
2022/06/02 00:19:52;;;;;;;;;;;;;;;15.60;76.48;100185.44;5004209;28;19932;-70
2022/06/02 00:22:22;;;;;;;;;;;;;;;15.61;76.58;100191.81;5004548;28;19979;-71
2022/06/02 00:24:53;;;;;;;;;;;;;;;15.63;76.52;100200.59;5007536;28;19925;-71
2022/06/02 00:27:21;;;;;;;;;;;;;;;15.62;76.50;100203.63;5005877;28;19975;-70
2022/06/02 00:29:50;;;;;;;;;;;;;;;15.59;76.69;100210.53;5004580;28;19925;-70
2022/06/02 00:32:19;;;;;;;;;;;;;;;15.55;76.75;100202.06;5003771;28;19929;-71
2022/06/02 00:34:47;;;;;;;;;;;;;;;15.53;76.66;100207.06;5003727;28;19925;-70
2022/06/02 00:37:21;;;;;;;;;;;;;;;15.43;76.77;100207.22;5004068;28;19925;-70
2022/06/02 00:39:47;;;;;;;;;;;;;;;15.29;77.22;100199.69;5003042;28;20396;-70
2022/06/02 00:42:24;;;;;;;;;;;;;;;15.15;77.82;100199.59;5004158;28;19933;-71
2022/06/02 00:44:53;;;;;;;;;;;;;;;15.01;78.33;100190.44;5003982;28;19995;-69
2022/06/02 00:47:28;;;;;;;;;;;;;;;14.79;78.96;100174.47;5004406;28;20116;-69
2022/06/02 00:50:00;;;;;;;;;;;;;;;14.74;79.30;100186.34;5003412;28;20349;-69
2022/06/02 00:52:30;;;;;;;;;;;;;;;14.64;79.70;100189.19;5003318;28;19925;-68
2022/06/02 00:57:53;;;;;;;;;;;;;;;14.48;80.56;100181.09;5004941;28;19972;-69
2022/06/02 01:00:20;;;;;;;;;;;;;;;14.43;80.91;100189.41;5004286;28;20406;-69
2022/06/02 01:02:51;;;;;;;;;;;;;;;14.37;81.15;100187.84;5003668;28;20052;-69
2022/06/02 01:05:35;;;;;;;;;;;;;;;14.31;81.25;100184.31;5002103;28;19925;-69
2022/06/02 01:08:08;;;;;;;;;;;;;;;14.27;81.77;100191.47;5005802;28;19941;-69
2022/06/02 01:10:40;;;;;;;;;;;;;;;14.24;81.69;100187.41;5001458;28;19931;-69
2022/06/02 01:13:21;;;;;;;;;;;;;;;14.22;81.83;100186.03;5004165;28;19972;-69
2022/06/02 01:15:49;;;;;;;;;;;;;;;14.20;81.72;100183.56;5002100;28;19925;-69
2022/06/02 01:18:20;;;;;;;;;;;;;;;14.17;81.94;100185.00;5002876;28;19929;-69
2022/06/02 01:20:55;;;;;;;;;;;;;;;14.16;81.82;100183.34;5000804;28;19932;-69
2022/06/02 01:23:54;;;;;;;;;;;;;;;14.16;81.85;100179.75;5002640;28;20036;-70
2022/06/02 01:26:38;;;;;;;;;;;;;;;14.16;81.94;100188.00;5003011;28;19925;-70
2022/06/02 01:29:13;;;;;;;;;;;;;;;14.13;81.81;100186.69;4999070;28;19928;-69
2022/06/02 01:31:43;;;;;;;;;;;;;;;14.14;81.94;100182.00;5004387;28;19925;-68
2022/06/02 01:34:22;;;;;;;;;;;;;;;14.15;81.76;100189.13;5002919;28;19932;-70
2022/06/02 01:36:54;;;;;;;;;;;;;;;14.14;81.88;100179.25;5003456;28;19971;-69
2022/06/02 01:39:30;;;;;;;;;;;;;;;14.17;81.93;100174.00;5001960;28;20359;-68
2022/06/02 01:42:01;;;;;;;;;;;;;;;14.21;81.69;100171.50;5018253;28;19956;-69
2022/06/02 01:44:31;;;;;;;;;;;;;;;14.25;81.55;100179.97;5003104;28;19929;-68
2022/06/02 01:47:01;;;;;;;;;;;;;;;14.29;81.32;100172.78;5002474;28;20415;-69
2022/06/02 01:49:40;;;;;;;;;;;;;;;14.31;81.42;100173.31;5002053;28;19936;-69
2022/06/02 01:52:17;;;;;;;;;;;;;;;14.33;81.05;100171.88;5004877;28;20328;-69
2022/06/02 01:54:50;;;;;;;;;;;;;;;14.35;81.34;100174.34;5000377;28;19925;-68
2022/06/02 01:57:22;;;;;;;;;;;;;;;14.37;80.93;100166.63;5006300;28;19932;-69
2022/06/02 01:59:58;;;;;;;;;;;;;;;14.48;80.95;100174.78;5002453;28;19926;-69
2022/06/02 02:02:32;;;;;;;;;;;;;;;14.68;80.34;100184.75;4988789;28;20293;-69
2022/06/02 02:05:16;;;;;;;;;;;;;;;14.91;79.48;100176.78;4985335;28;19976;-69
2022/06/02 02:07:54;;;;;;;;;;;;;;;15.16;78.33;100176.47;5005018;28;20272;-69
2022/06/02 02:10:27;;;;;;;;;;;;;;;15.34;77.65;100176.75;5002451;28;19937;-69
2022/06/02 02:12:57;;;;;;;;;;;;;;;15.44;76.92;100170.28;5017141;28;19925;-69
2022/06/02 02:15:30;;;;;;;;;;;;;;;15.41;76.75;100171.69;5010823;28;19932;-69
2022/06/02 02:18:13;;;;;;;;;;;;;;;15.37;77.07;100167.91;5006980;28;19931;-68
2022/06/02 02:20:48;;;;;;;;;;;;;;;15.36;77.08;100174.53;4995149;28;19932;-69
2022/06/02 02:23:19;;;;;;;;;;;;;;;15.30;76.43;100171.03;4987165;28;19932;-68
2022/06/02 02:25:49;;;;;;;;;;;;;;;15.29;76.70;100174.06;5004694;28;19925;-69
2022/06/02 02:28:18;;;;;;;;;;;;;;;15.25;76.73;100173.84;5005310;28;19925;-69
2022/06/02 02:31:01;;;;;;;;;;;;;;;15.22;76.80;100168.13;5001943;28;19925;-69
2022/06/02 02:33:32;;;;;;;;;;;;;;;15.16;76.86;100170.13;5001596;28;20400;-69
2022/06/02 02:36:02;;;;;;;;;;;;;;;15.11;76.85;100172.94;5002428;28;19925;-69
2022/06/02 02:38:33;;;;;;;;;;;;;;;15.01;77.01;100162.91;5002464;28;19972;-68
2022/06/02 02:41:01;;;;;;;;;;;;;;;15.00;76.75;100161.25;5002553;28;19956;-69
2022/06/02 02:43:30;;;;;;;;;;;;;;;15.02;76.70;100161.78;5003501;28;19925;-69
2022/06/02 02:45:59;;;;;;;;;;;;;;;15.06;76.57;100160.06;5004739;28;19925;-69
2022/06/02 02:48:32;;;;;;;;;;;;;;;15.12;76.49;100156.13;5002520;28;19925;-68
2022/06/02 02:51:03;;;;;;;;;;;;;;;15.19;76.01;100154.94;5003060;28;19925;-69
2022/06/02 02:53:33;;;;;;;;;;;;;;;15.24;75.94;100165.88;5004365;28;19971;-69
2022/06/02 02:56:01;;;;;;;;;;;;;;;15.28;75.58;100155.91;4999601;28;19929;-69
2022/06/02 02:58:31;;;;;;;;;;;;;;;15.32;75.49;100149.50;5003699;28;20384;-69
2022/06/02 03:01:00;;;;;;;;;;;;;;;15.36;75.37;100143.38;5003825;28;20371;-69
2022/06/02 03:03:30;;;;;;;;;;;;;;;15.41;75.38;100141.38;5008244;28;19936;-69
2022/06/02 03:06:09;;;;;;;;;;;;;;;15.45;75.14;100138.84;5009012;28;19979;-69
2022/06/02 03:08:44;;;;;;;;;;;;;;;15.48;74.64;100138.25;5004819;28;19925;-70
2022/06/02 03:11:17;;;;;;;;;;;;;;;15.51;74.49;100128.56;5005502;28;20320;-69
2022/06/02 03:13:47;;;;;;;;;;;;;;;15.49;74.53;100123.34;5004320;28;19944;-69
2022/06/02 03:16:12;;;;;;;;;;;;;;;15.51;74.55;100121.09;5006543;28;19925;-69
2022/06/02 03:18:55;;;;;;;;;;;;;;;15.56;74.16;100122.97;5005832;28;20503;-69
2022/06/02 03:21:27;;;;;;;;;;;;;;;15.60;73.91;100122.06;5006150;28;20524;-69
2022/06/02 03:24:08;;;;;;;;;;;;;;;15.69;73.58;100116.69;5003420;28;19934;-69
2022/06/02 03:26:41;;;;;;;;;;;;;;;15.78;73.70;100113.25;5006822;28;20413;-69
2022/06/02 03:29:10;;;;;;;;;;;;;;;15.85;72.94;100124.69;5005405;28;20356;-69
2022/06/02 03:31:51;;;;;;;;;;;;;;;15.86;72.98;100115.28;5005683;28;19925;-69
2022/06/02 03:34:24;;;;;;;;;;;;;;;15.95;72.78;100121.78;5004415;28;19925;-69
2022/06/02 03:37:06;;;;;;;;;;;;;;;15.99;72.26;100125.56;5005148;28;20363;-69
2022/06/02 03:39:41;;;;;;;;;;;;;;;15.92;72.14;100136.19;5024965;28;19924;-69
2022/06/02 03:42:15;;;;;;;;;;;;;;;15.86;72.28;100134.59;5025006;28;19995;-69
2022/06/02 03:44:46;;;;;;;;;;;;;;;15.88;72.18;100133.19;5026109;28;19935;-71
2022/06/02 03:47:23;;;;;;;;;;;;;;;15.92;71.95;100133.44;5028200;28;19951;-69
2022/06/02 03:50:06;;;;;;;;;;;;;;;16.00;71.63;100135.47;5025907;28;19925;-69
2022/06/02 03:52:40;;;;;;;;;;;;;;;16.04;71.64;100134.88;5009601;28;19925;-69
2022/06/02 03:55:13;;;;;;;;;;;;;;;16.11;71.40;100143.56;5003522;28;19925;-69
2022/06/02 03:57:48;;;;;;;;;;;;;;;16.17;71.17;100145.09;5003534;28;20420;-67
2022/06/02 04:00:20;;;;;;;;;;;;;;;16.25;70.93;100143.59;5000324;28;19975;-69
2022/06/02 04:02:50;;;;;;;;;;;;;;;16.30;71.06;100149.00;4988410;28;20278;-69
2022/06/02 04:05:30;;;;;;;;;;;;;;;16.35;70.92;100151.69;4984905;28;19926;-69
2022/06/02 04:08:04;;;;;;;;;;;;;;;16.39;70.40;100151.88;4989564;28;19926;-68
2022/06/02 04:10:34;;;;;;;;;;;;;;;16.43;70.54;100152.91;4998841;28;19925;-69
2022/06/02 04:16:07;;;;;;;;;;;;;;;16.54;70.11;100165.38;5005608;28;20015;-69
2022/06/02 04:18:40;;;;;;;;;;;;;;;16.57;70.16;100166.69;5007509;28;19925;-69
2022/06/02 04:21:15;;;;;;;;;;;;;;;16.57;70.27;100164.78;5006234;28;20298;-69
2022/06/02 04:23:49;;;;;;;;;;;;;;;16.58;70.10;100158.13;5003981;28;19988;-69
2022/06/02 04:26:33;;;;;;;;;;;;;;;16.64;70.20;100155.25;5006124;28;19932;-69
2022/06/02 04:29:08;;;;;;;;;;;;;;;16.72;69.42;100162.84;5004518;28;20182;-69
2022/06/02 04:31:42;;;;;;;;;;;;;;;16.75;69.57;100159.44;5008037;28;19929;-69
2022/06/02 04:34:14;;;;;;;;;;;;;;;16.79;69.46;100162.41;5003796;28;19951;-69
2022/06/02 04:36:43;;;;;;;;;;;;;;;16.79;69.24;100157.69;4987377;28;19925;-69
2022/06/02 04:39:12;;;;;;;;;;;;;;;16.89;69.03;100153.91;5004402;28;20019;-69
2022/06/02 04:41:43;;;;;;;;;;;;;;;16.93;68.40;100165.97;5005231;28;19925;-69
2022/06/02 04:44:16;;;;;;;;;;;;;;;16.97;68.07;100166.16;5004143;28;20456;-69
2022/06/02 04:46:47;;;;;;;;;;;;;;;17.00;68.17;100162.81;5004445;28;20372;-69
2022/06/02 04:49:17;;;;;;;;;;;;;;;17.05;68.12;100159.97;5004615;28;20296;-69
2022/06/02 04:51:48;;;;;;;;;;;;;;;17.12;67.66;100157.56;5004622;28;19925;-69
2022/06/02 04:54:19;;;;;;;;;;;;;;;17.23;67.79;100169.22;5000447;28;20416;-69
2022/06/02 04:56:48;;;;;;;;;;;;;;;17.26;67.34;100165.03;4984246;28;20309;-69
2022/06/02 04:59:18;;;;;;;;;;;;;;;17.29;67.00;100161.63;4999595;28;19979;-69
2022/06/02 05:01:50;;;;;;;;;;;;;;;17.29;67.06;100159.69;4998322;28;20323;-69
2022/06/02 05:04:23;;;;;;;;;;;;;;;17.32;66.90;100151.91;5021061;28;19925;-68
2022/06/02 05:06:52;;;;;;;;;;;;;;;17.40;66.78;100159.44;5018516;28;19940;-69
2022/06/02 05:09:22;;;;;;;;;;;;;;;17.49;66.41;100148.47;5004735;28;19925;-69
2022/06/02 05:11:52;;;;;;;;;;;;;;;17.61;66.39;100145.16;5003019;28;19932;-69
2022/06/02 05:14:25;;;;;;;;;;;;;;;17.66;65.71;100140.31;5006385;28;20027;-69
2022/06/02 05:16:55;;;;;;;;;;;;;;;17.68;66.04;100140.81;5007374;28;19982;-70
2022/06/02 05:19:42;;;;;;;;;;;;;;;17.76;65.83;100141.16;5014935;28;19925;-71
2022/06/02 05:22:25;;;;;;;;;;;;;;;17.85;65.59;100142.06;5013756;28;19941;-69
2022/06/02 05:25:03;;;;;;;;;;;;;;;17.90;65.12;100141.91;5013162;28;20435;-69
2022/06/02 05:27:47;;;;;;;;;;;;;;;17.93;65.09;100140.47;5011333;28;20414;-69
2022/06/02 05:30:33;;;;;;;;;;;;;;;17.97;65.33;100133.16;4991751;28;19948;-69
2022/06/02 05:33:19;;;;;;;;;;;;;;;18.00;65.38;100138.91;5006016;28;20020;-70
2022/06/02 05:36:06;;;;;;;;;;;;;;;18.17;65.25;100137.38;5004016;28;20434;-69
2022/06/02 05:38:46;;;;;;;;;;;;;;;18.24;64.79;100140.50;5007638;28;19925;-69
2022/06/02 05:41:20;;;;;;;;;;;;;;;18.29;64.89;100136.78;5006428;28;19980;-70
2022/06/02 05:43:52;;;;;;;;;;;;;;;18.37;64.87;100132.41;5005382;28;20408;-69
2022/06/02 05:46:27;;;;;;;;;;;;;;;18.44;64.66;100130.00;5012947;28;19936;-71
2022/06/02 05:49:00;;;;;;;;;;;;;;;18.54;64.25;100131.69;5009922;28;19925;-71
2022/06/02 05:51:31;;;;;;;;;;;;;;;18.56;64.36;100138.50;5013343;28;19947;-70
2022/06/02 05:54:05;;;;;;;;;;;;;;;18.61;64.38;100133.97;5010362;28;19931;-71
2022/06/02 05:56:39;;;;;;;;;;;;;;;18.63;64.10;100129.72;4659689;28;9999661;-71
2022/06/02 05:59:21;;;;;;;;;;;;;;;18.60;64.05;100130.38;5004801;28;20315;-71
2022/06/02 06:01:53;;;;;;;;;;;;;;;18.52;64.61;100125.66;5008615;28;20000;-72
2022/06/02 06:04:32;;;;;;;;;;;;;;;18.47;64.73;100123.84;5004096;28;19934;-73
2022/06/02 06:07:00;;;;;;;;;;;;;;;18.59;65.01;100123.22;5002393;28;19991;-71
2022/06/02 06:09:34;;;;;;;;;;;;;;;18.72;64.69;100132.53;4998641;28;20401;-70
2022/06/02 06:12:13;;;;;;;;;;;;;;;18.70;64.31;100120.94;4998591;28;19926;-71
2022/06/02 06:14:43;;;;;;;;;;;;;;;18.63;64.74;100121.44;4997553;28;20405;-71
2022/06/02 06:17:14;;;;;;;;;;;;;;;18.75;64.84;100117.22;4999337;28;19925;-71
2022/06/02 06:19:49;;;;;;;;;;;;;;;19.05;64.38;100125.78;5017868;28;19932;-71
2022/06/02 06:22:22;;;;;;;;;;;;;;;19.22;63.25;100127.75;5005881;28;19930;-71
2022/06/02 06:25:05;;;;;;;;;;;;;;;19.29;63.27;100111.44;5003945;28;19933;-71
2022/06/02 06:27:33;;;;;;;;;;;;;;;19.47;63.12;100122.53;5004223;28;19932;-71
2022/06/02 06:30:07;;;;;;;;;;;;;;;19.60;62.42;100109.63;5007118;28;19941;-71
2022/06/02 06:32:36;;;;;;;;;;;;;;;19.77;62.17;100108.78;5007290;28;19956;-71
2022/06/02 06:35:11;;;;;;;;;;;;;;;19.94;61.61;100110.75;5000441;28;19929;-71
2022/06/02 06:37:50;;;;;;;;;;;;;;;20.05;61.81;100114.75;4988956;28;19925;-71
2022/06/02 06:40:27;;;;;;;;;;;;;;;20.33;61.06;100116.31;4985143;28;19925;-71
2022/06/02 06:43:03;;;;;;;;;;;;;;;20.52;60.28;100113.09;5009419;28;19932;-71
2022/06/02 06:45:33;;;;;;;;;;;;;;;20.54;60.40;100113.59;5001229;28;19925;-71
2022/06/02 06:48:00;;;;;;;;;;;;;;;20.74;60.18;100109.22;4999709;28;19924;-69
2022/06/02 06:50:32;;;;;;;;;;;;;;;20.88;58.94;100113.75;5009616;28;20015;-69
2022/06/02 06:53:03;;;;;;;;;;;;;;;21.02;58.66;100096.81;5020149;28;20400;-69
2022/06/02 06:55:36;;;;;;;;;;;;;;;21.15;58.62;100106.84;5007423;28;20012;-69
2022/06/02 06:58:07;;;;;;;;;;;;;;;21.32;58.35;100105.09;5008130;28;19933;-69
2022/06/02 07:00:35;;;;;;;;;;;;;;;21.43;57.78;100094.34;5004110;28;19936;-68
2022/06/02 07:03:06;;;;;;;;;;;;;;;21.49;57.63;100104.09;5005385;28;19926;-71
2022/06/02 07:05:37;;;;;;;;;;;;;;;21.50;57.55;100103.75;5000462;28;20016;-71
2022/06/02 07:08:07;;;;;;;;;;;;;;;21.61;57.23;100108.88;5009147;28;19925;-71
2022/06/02 07:10:35;;;;;;;;;;;;;;;21.55;57.20;100119.44;5007014;28;20027;-71
2022/06/02 07:13:08;;;;;;;;;;;;;;;21.58;56.98;100117.91;5007955;28;19968;-71
2022/06/02 07:15:45;;;;;;;;;;;;;;;21.70;56.51;100111.59;5005090;28;20384;-71
2022/06/02 07:18:21;;;;;;;;;;;;;;;21.84;56.39;100120.47;5005373;28;19936;-69
2022/06/02 07:20:54;;;;;;;;;;;;;;;21.94;56.21;100114.47;5005285;28;20392;-68
2022/06/02 07:23:27;;;;;;;;;;;;;;;21.99;55.88;100121.78;5000759;28;20377;-69
2022/06/02 07:25:58;;;;;;;;;;;;;;;22.09;55.68;100126.94;5010111;28;19925;-68
2022/06/02 07:28:31;;;;;;;;;;;;;;;22.39;55.26;100120.31;5006790;28;19940;-72
2022/06/02 07:31:02;;;;;;;;;;;;;;;22.63;54.65;100127.06;5006629;28;19926;-69
2022/06/02 07:33:51;;;;;;;;;;;;;;;22.79;54.25;100130.81;5006609;28;19948;-70
2022/06/02 07:36:38;;;;;;;;;;;;;;;22.65;54.20;100135.91;5004938;28;19925;-68
2022/06/02 07:39:34;;;;;;;;;;;;;;;22.65;54.46;100138.72;5004423;28;19980;-69
2022/06/02 07:42:06;;;;;;;;;;;;;;;22.75;54.21;100132.66;5003256;28;19929;-68
2022/06/02 07:44:48;;;;;;;;;;;;;;;22.86;53.59;100135.75;5004316;28;20412;-68
2022/06/02 07:47:29;;;;;;;;;;;;;;;23.07;53.46;100140.41;4996298;28;19925;-69
2022/06/02 07:50:00;;;;;;;;;;;;;;;23.05;52.92;100137.94;5006560;28;19948;-68
2022/06/02 07:52:32;;;;;;;;;;;;;;;23.21;53.00;100132.47;5004258;28;19925;-72
2022/06/02 07:55:02;;;;;;;;;;;;;;;23.60;52.00;100122.81;4983615;28;19932;-71
2022/06/02 07:57:37;;;;;;;;;;;;;;;23.83;51.00;100125.03;5004540;28;20063;-69
2022/06/02 08:00:09;;;;;;;;;;;;;;;23.83;51.14;100120.25;5004918;28;19926;-69
2022/06/02 08:02:48;;;;;;;;;;;;;;;24.32;50.19;100130.31;5007712;28;20277;-71
2022/06/02 08:05:22;;;;;;;;;;;;;;;24.45;49.22;100130.22;5005127;28;20155;-71
2022/06/02 08:07:52;;;;;;;;;;;;;;;24.41;49.08;100129.31;5005611;28;19995;-72
2022/06/02 08:10:21;;;;;;;;;;;;;;;24.53;49.00;100125.63;5004835;28;20036;-72
2022/06/02 08:12:49;;;;;;;;;;;;;;;24.85;48.19;100131.97;5005512;28;19926;-68
2022/06/02 08:15:21;;;;;;;;;;;;;;;24.95;47.46;100125.00;5004535;28;19956;-69
2022/06/02 08:17:50;;;;;;;;;;;;;;;24.93;47.45;100124.56;4966614;28;19949;-69
2022/06/02 08:20:24;;;;;;;;;;;;;;;25.20;46.82;100127.56;5001211;28;19925;-69
2022/06/02 08:22:57;;;;;;;;;;;;;;;25.33;46.75;100131.84;5008963;28;19936;-69
2022/06/02 08:25:25;;;;;;;;;;;;;;;25.49;46.18;100130.97;5013926;28;19929;-70
2022/06/02 08:28:00;;;;;;;;;;;;;;;25.87;45.05;100131.31;5006553;28;19925;-71
2022/06/02 08:30:29;;;;;;;;;;;;;;;26.15;43.93;100130.22;5001305;28;20266;-73
2022/06/02 08:33:00;;;;;;;;;;;;;;;26.15;44.40;100127.41;5006442;28;19929;-71
2022/06/02 08:35:28;;;;;;;;;;;;;;;26.51;43.66;100135.59;5003696;28;19925;-70
2022/06/02 08:38:18;;;;;;;;;;;;;;;26.76;43.02;100131.22;5004753;28;19971;-72
2022/06/02 08:41:28;;;;;;;;;;;;;;;27.32;42.01;100130.78;4987624;28;19929;-72
2022/06/02 08:44:15;;;;;;;;;;;;;;;27.54;41.51;100136.66;5005622;28;19936;-71
2022/06/02 08:46:58;;;;;;;;;;;;;;;27.75;40.90;100130.50;5004524;28;20019;-72
2022/06/02 08:49:48;;;;;;;;;;;;;;;28.09;40.38;100130.44;5002588;28;19995;-72
2022/06/02 08:52:47;;;;;;;;;;;;;;;28.36;39.93;100127.47;5006073;28;19932;-71
2022/06/02 08:55:28;;;;;;;;;;;;;;;28.75;39.12;100125.38;4945134;29;19961;-69
2022/06/02 08:58:11;;;;;;;;;;;;;;;28.85;38.81;100119.00;4942709;28;19926;-72
2022/06/02 09:00:45;;;;;;;;;;;;;;;29.02;38.13;100128.75;4924833;29;19997;-72
2022/06/02 09:03:34;;;;;;;;;;;;;;;29.08;37.73;100123.56;4938504;29;19937;-72
2022/06/02 09:06:16;;;;;;;;;;;;;;;29.19;38.16;100123.59;4905700;29;20531;-72
2022/06/02 09:09:01;;;;;;;;;;;;;;;29.56;37.61;100119.75;4883741;29;20046;-72
2022/06/02 09:11:39;;;;;;;;;;;;;;;30.17;36.76;100121.09;4908377;29;19958;-69
2022/06/02 09:14:23;;;;;;;;;;;;;;;30.66;35.36;100124.31;4903641;29;19927;-69
2022/06/02 09:16:58;;;;;;;;;;;;;;;30.77;35.39;100110.19;4905306;29;19923;-69
2022/06/02 09:19:42;;;;;;;;;;;;;;;31.45;34.47;100109.16;4904020;29;19931;-72
2022/06/02 09:22:21;;;;;;;;;;;;;;;31.69;33.36;100110.22;4905451;29;19931;-71
2022/06/02 09:24:51;;;;;;;;;;;;;;;31.61;33.42;100103.03;4891699;29;20330;-69
2022/06/02 09:27:34;;;;;;;;;;;;;;;31.92;32.83;100105.25;4975878;28;20263;-69
2022/06/02 09:30:03;;;;;;;;;;;;;;;31.92;33.09;100105.25;4964530;28;19925;-69
2022/06/02 09:32:47;;;;;;;;;;;;;;;32.10;32.88;100102.31;4963598;28;19925;-69
2022/06/02 09:35:17;;;;;;;;;;;;;;;32.54;32.18;100099.91;4980039;28;19925;-71
2022/06/02 09:37:51;;;;;;;;;;;;;;;32.87;31.18;100099.59;4983016;28;19926;-69
2022/06/02 09:40:25;;;;;;;;;;;;;;;32.61;32.09;100097.00;4991456;28;19926;-72
2022/06/02 09:43:10;;;;;;;;;;;;;;;32.78;31.53;100095.22;4999633;28;20221;-71
2022/06/02 09:45:42;;;;;;;;;;;;;;;33.10;30.53;100091.22;5012084;28;19979;-72
2022/06/02 09:48:17;;;;;;;;;;;;;;;33.42;30.38;100083.56;5006978;28;20417;-69
2022/06/02 09:51:00;;;;;;;;;;;;;;;33.50;30.23;100092.78;5002573;28;19932;-69
2022/06/02 09:53:42;;;;;;;;;;;;;;;32.18;31.95;100088.91;4976031;28;20408;-72
2022/06/02 09:56:18;;;;;;;;;;;;;;;31.59;32.85;100091.31;5018589;28;19936;-72
2022/06/02 09:58:50;;;;;;;;;;;;;;;30.89;33.92;100097.66;4988173;28;19925;-73
2022/06/02 10:01:29;;;;;;;;;;;;;;;29.57;36.09;100084.75;5002614;28;19925;-73
2022/06/02 10:04:01;;;;;;;;;;;;;;;28.92;37.66;100078.84;5005881;28;19956;-72
2022/06/02 10:06:49;;;;;;;;;;;;;;;29.76;36.68;100077.94;5003061;28;20283;-72
2022/06/02 10:09:20;;;;;;;;;;;;;;;29.23;36.66;100068.13;5020733;28;19925;-72
2022/06/02 10:11:49;;;;;;;;;;;;;;;28.72;37.91;100060.25;5010539;28;19929;-72
2022/06/02 10:14:32;;;;;;;;;;;;;;;29.89;36.06;100066.28;4998135;28;20371;-73
2022/06/02 10:17:11;;;;;;;;;;;;;;;29.95;36.05;100053.41;5004768;28;19964;-72
2022/06/02 10:19:49;;;;;;;;;;;;;;;29.26;37.00;100068.16;5000454;28;19932;-72
2022/06/02 10:22:22;;;;;;;;;;;;;;;28.78;37.85;100049.41;5002943;28;19929;-72
2022/06/02 10:24:59;;;;;;;;;;;;;;;28.09;39.18;100076.25;5004792;28;19925;-71
2022/06/02 10:27:48;;;;;;;;;;;;;;;29.01;37.55;100066.03;5005762;28;20072;-72
2022/06/02 10:30:31;;;;;;;;;;;;;;;30.19;35.46;100065.13;5011858;28;19932;-71
2022/06/02 10:33:07;;;;;;;;;;;;;;;31.37;33.44;100065.22;5007969;28;19925;-72
2022/06/02 10:35:48;;;;;;;;;;;;;;;32.73;31.71;100058.09;5021663;28;19929;-72
2022/06/02 10:38:24;;;;;;;;;;;;;;;33.75;30.02;100055.56;4988857;28;19945;-71
2022/06/02 10:41:01;;;;;;;;;;;;;;;34.74;28.21;100066.03;5006244;28;19925;-72
2022/06/02 10:43:40;;;;;;;;;;;;;;;34.58;27.67;100056.19;5009739;28;19924;-72
2022/06/02 10:46:29;;;;;;;;;;;;;;;34.88;27.73;100051.53;4997863;28;19926;-72
2022/06/02 10:49:07;;;;;;;;;;;;;;;35.88;26.17;100058.28;4999136;28;19926;-72
2022/06/02 10:51:51;;;;;;;;;;;;;;;35.43;26.50;100059.72;5018721;28;20038;-69
2022/06/02 10:54:35;;;;;;;;;;;;;;;34.35;27.39;100071.19;5006540;28;19975;-67
2022/06/02 10:57:12;;;;;;;;;;;;;;;34.48;27.70;100063.66;5004455;28;19995;-69
2022/06/02 10:59:52;;;;;;;;;;;;;;;34.60;28.04;100067.13;5006085;28;19933;-69
2022/06/02 11:02:40;;;;;;;;;;;;;;;34.01;28.88;100060.84;5004090;28;20396;-69
2022/06/02 11:05:29;;;;;;;;;;;;;;;32.68;30.88;100063.00;5022104;28;19925;-69
2022/06/02 11:08:28;;;;;;;;;;;;;;;32.49;31.51;100061.56;5007080;28;20286;-69
2022/06/02 11:11:01;;;;;;;;;;;;;;;34.06;29.04;100074.53;5017403;28;19925;-69
2022/06/02 11:13:51;;;;;;;;;;;;;;;34.77;27.70;100059.47;4999654;28;19929;-69
2022/06/02 11:16:31;;;;;;;;;;;;;;;34.08;28.79;100050.19;4995090;28;19983;-69
2022/06/02 11:19:14;;;;;;;;;;;;;;;34.12;28.65;100050.13;5007305;28;19932;-69
2022/06/02 11:22:00;;;;;;;;;;;;;;;35.59;26.69;100050.44;4973411;28;20475;-70
2022/06/02 11:24:40;;;;;;;;;;;;;;;34.03;28.62;100056.34;5010270;28;19925;-69
2022/06/02 11:27:37;;;;;;;;;;;;;;;34.07;28.45;100054.25;5010294;28;20000;-69
2022/06/02 11:30:18;;;;;;;;;;;;;;;35.36;26.29;100042.84;5013808;28;20316;-69
2022/06/02 11:32:59;;;;;;;;;;;;;;;36.10;25.91;100052.06;5010283;28;19929;-69
2022/06/02 11:35:40;;;;;;;;;;;;;;;35.59;26.74;100049.63;5006951;28;19926;-69
2022/06/02 11:38:20;;;;;;;;;;;;;;;35.66;26.17;100049.47;5004025;28;19932;-69
2022/06/02 11:41:00;;;;;;;;;;;;;;;35.78;25.89;100053.66;4998150;28;19932;-69
2022/06/02 11:43:31;;;;;;;;;;;;;;;35.98;25.76;100039.34;4999597;28;20164;-69
2022/06/02 11:46:21;;;;;;;;;;;;;;;36.55;25.27;100044.81;5003677;28;20007;-68
2022/06/02 11:49:05;;;;;;;;;;;;;;;37.40;23.97;100032.59;5023447;28;19929;-69
2022/06/02 11:51:47;;;;;;;;;;;;;;;37.17;23.93;100043.84;5004454;28;19925;-68
2022/06/02 11:54:23;;;;;;;;;;;;;;;36.37;24.90;100048.13;5011988;28;20027;-69
2022/06/02 11:57:07;;;;;;;;;;;;;;;34.97;26.62;100041.63;5004507;28;19932;-72
2022/06/02 12:00:02;;;;;;;;;;;;;;;34.22;28.24;100049.13;5012074;28;19924;-71
2022/06/02 12:02:47;;;;;;;;;;;;;;;33.93;28.06;100055.25;4965450;28;20036;-72
2022/06/02 12:05:37;;;;;;;;;;;;;;;32.38;29.70;100046.72;4980591;28;19929;-73
2022/06/02 12:08:28;;;;;;;;;;;;;;;31.51;30.98;100036.88;5023802;28;20389;-72
2022/06/02 12:11:12;;;;;;;;;;;;;;;32.22;31.05;100041.63;5009820;28;20015;-72
2022/06/02 12:13:47;;;;;;;;;;;;;;;32.68;29.75;100048.03;5010240;28;20157;-72
2022/06/02 12:16:22;;;;;;;;;;;;;;;33.02;29.26;100043.63;5015049;28;19941;-72
2022/06/02 12:18:55;;;;;;;;;;;;;;;33.47;28.67;100049.09;5006181;28;20281;-68
2022/06/02 12:21:34;;;;;;;;;;;;;;;33.85;27.89;100033.13;5008569;28;19963;-71
2022/06/02 12:24:08;;;;;;;;;;;;;;;34.23;27.51;100021.56;5003528;28;20395;-72
2022/06/02 12:26:42;;;;;;;;;;;;;;;34.18;27.58;100027.72;5008451;28;19934;-72
2022/06/02 12:29:16;;;;;;;;;;;;;;;34.34;27.40;100021.38;5008019;28;19936;-71
2022/06/02 12:32:15;;;;;;;;;;;;;;;34.16;27.49;100024.53;5002465;28;20036;-73
2022/06/02 12:34:52;;;;;;;;;;;;;;;33.54;28.22;100021.88;5004132;28;19940;-72
2022/06/02 12:37:28;;;;;;;;;;;;;;;33.73;27.77;100024.00;5001777;28;20186;-69
2022/06/02 12:40:02;;;;;;;;;;;;;;;34.11;27.45;100013.69;5006616;28;19932;-69
2022/06/02 12:42:52;;;;;;;;;;;;;;;34.61;26.63;100004.22;5009409;28;19925;-69
2022/06/02 12:45:34;;;;;;;;;;;;;;;35.08;26.27;100021.56;5004243;28;20042;-72
2022/06/02 12:48:14;;;;;;;;;;;;;;;34.40;26.86;100013.16;5007905;28;19931;-71
2022/06/02 12:50:53;;;;;;;;;;;;;;;32.98;28.86;100011.72;5008047;28;20039;-71
2022/06/02 12:53:41;;;;;;;;;;;;;;;31.63;30.59;100027.13;5010896;28;19929;-72
2022/06/02 12:56:28;;;;;;;;;;;;;;;30.59;31.76;100017.13;5009214;28;20381;-71
2022/06/02 12:59:08;;;;;;;;;;;;;;;29.82;33.18;100017.19;5006591;28;19928;-69
2022/06/02 13:01:51;;;;;;;;;;;;;;;29.06;34.80;100014.19;5007129;28;19955;-71
2022/06/02 13:04:35;;;;;;;;;;;;;;;28.49;35.81;100012.72;5003250;28;19968;-68
2022/06/02 13:07:28;;;;;;;;;;;;;;;28.15;36.43;100012.84;4999110;28;19933;-68
2022/06/02 13:10:09;;;;;;;;;;;;;;;27.73;37.07;100007.34;5003730;28;19925;-72
2022/06/02 13:12:55;;;;;;;;;;;;;;;27.68;37.44;100010.47;5005850;28;20022;-72
2022/06/02 13:15:34;;;;;;;;;;;;;;;27.48;38.06;99998.66;5009863;28;19929;-71
2022/06/02 13:18:10;;;;;;;;;;;;;;;27.64;37.76;99997.63;5005464;28;20382;-68
2022/06/02 13:20:49;;;;;;;;;;;;;;;28.42;36.36;99991.00;5001237;28;19948;-68
2022/06/02 13:23:35;;;;;;;;;;;;;;;29.30;34.85;99987.31;5005146;28;19935;-68
2022/06/02 13:26:16;;;;;;;;;;;;;;;29.91;33.57;99990.63;5000763;28;20467;-69
2022/06/02 13:28:59;;;;;;;;;;;;;;;30.23;33.38;99992.63;5023903;28;20396;-69
2022/06/02 13:31:36;;;;;;;;;;;;;;;30.21;33.52;99995.03;4984532;28;20403;-69